In Rescue
 
Open Full Screen Window  High Contrast Mode
Wind Gusting 00 knots
05
January 17, 2021 2:25 PM EST
Present Weather: Light Snow
Weather Information
Wind Direction
  210 °
Wind Speed
  05 kt (6 mph)
Wind Gust
  00 kt (0 mph)
Altimeter
29.62 in
Visibility
4 SM
Temperature
00° C
32° F
Dewpoint
-01° C
30° F
Humidity
93%
1hr Rain Fall
00.00 in.
24hr Rain Fall
00.00 in.
Sky Condition
Overcast @ 1,500 ft
Broken @ 1,000 ft
MVFR

METAR KJYM 171925Z AUTO 21005KT 4SM -SN BKN010 OVC015 00/M01 A2962 RMK AO2 T00021008

FAA Disclaimer: The data displayed is for advisory purposes only and is not to be used for flight planning or operations.